Time;durP1;ratioP1;P1;durP2;ratioP2;P2;SDS_P1;SDS_P2;PMS_P1;PMS_P2;Temp;Humidity;BMP_temperature;BMP_pressure;BME280_temperature;BME280_humidity;BME280_pressure;Samples;Min_cycle;Max_cycle;Signal;HPM_P1;HPM_P2
2022/08/06 00:01:34;;;;;;;5.13;2.43;;;20.70;16.40;;;;;;8334450;28;20190;-65
2022/08/06 00:05:34;;;;;;;2.10;1.90;;;20.50;28.50;;;;;;8336038;28;20245;-66
2022/08/06 00:09:35;;;;;;;2.87;1.80;;;20.30;1.00;;;;;;8343684;28;20225;-66
2022/08/06 00:13:36;;;;;;;2.33;1.83;;;20.20;1.00;;;;;;8332159;28;20221;-65
2022/08/06 00:17:38;;;;;;;2.20;1.53;;;20.10;1.00;;;;;;8341554;28;20213;-66
2022/08/06 00:21:38;;;;;;;1.60;1.40;;;20.00;1.00;;;;;;8339690;28;20206;-68
2022/08/06 00:25:39;;;;;;;1.73;1.40;;;19.90;1.00;;;;;;8335197;28;20201;-66
2022/08/06 00:29:40;;;;;;;2.47;1.10;;;19.60;1.00;;;;;;8337628;28;20178;-65
2022/08/06 00:33:41;;;;;;;5.17;0.80;;;19.40;1.00;;;;;;8334318;28;20210;-66
2022/08/06 00:37:42;;;;;;;2.97;1.00;;;19.30;1.00;;;;;;8351043;28;20182;-66
2022/08/06 00:41:43;;;;;;;2.83;0.70;;;19.20;1.00;;;;;;8333149;28;20189;-66
2022/08/06 00:45:44;;;;;;;1.50;0.90;;;19.10;1.00;;;;;;8336524;28;20182;-66
2022/08/06 00:49:45;;;;;;;0.97;0.80;;;18.90;99.90;;;;;;8336087;28;20179;-65
2022/08/06 00:53:46;;;;;;;1.73;0.73;;;18.80;99.90;;;;;;8335825;28;20271;-66
2022/08/06 00:57:47;;;;;;;0.90;0.70;;;18.70;99.90;;;;;;8352335;28;20174;-66
2022/08/06 01:01:47;;;;;;;2.33;0.73;;;18.50;99.90;;;;;;8338938;28;20186;-65
2022/08/06 01:05:49;;;;;;;2.80;0.80;;;18.40;99.90;;;;;;8336453;28;20191;-66
2022/08/06 01:09:50;;;;;;;1.60;0.90;;;18.00;1.00;;;;;;8338396;28;20205;-66
2022/08/06 01:13:50;;;;;;;7.90;1.40;;;17.70;1.00;;;;;;8336397;28;20219;-65
2022/08/06 01:18:03;;;;;;;10.63;2.17;;;17.10;99.90;;;;;;8334314;28;20213;-66
2022/08/06 01:22:15;;;;;;;3.67;1.77;;;16.10;99.90;;;;;;8348599;28;20189;-66
2022/08/06 01:26:25;;;;;;;2.73;1.53;;;15.60;99.90;;;;;;8351851;28;20236;-64
2022/08/06 01:30:32;;;;;;;3.57;2.20;;;15.30;99.90;;;;;;8329916;28;20282;-64
2022/08/06 01:34:56;;;;;;;2.37;2.17;;;15.20;99.90;;;;;;8335329;28;20293;-65
2022/08/06 01:38:59;;;;;;;2.30;2.00;;;15.20;99.90;;;;;;8336222;28;20220;-65
2022/08/06 01:43:01;;;;;;;2.60;2.27;;;15.10;99.90;;;;;;8337751;28;20182;-66
2022/08/06 01:47:07;;;;;;;2.37;2.17;;;15.00;99.90;;;;;;8342518;28;20183;-66
2022/08/06 01:51:10;;;;;;;5.23;2.50;;;15.00;99.90;;;;;;8339074;28;20285;-66
2022/08/06 01:55:14;;;;;;;4.00;2.77;;;15.00;99.90;;;;;;8339068;28;20274;-65
2022/08/06 01:59:18;;;;;;;5.00;2.57;;;14.90;99.90;;;;;;8340992;28;20319;-66
2022/08/06 02:03:24;;;;;;;2.67;1.93;;;14.90;99.90;;;;;;8345251;28;20182;-65
2022/08/06 02:07:30;;;;;;;3.37;2.30;;;14.80;99.90;;;;;;8338464;28;20192;-65
2022/08/06 02:11:34;;;;;;;5.47;2.73;;;14.80;99.90;;;;;;8338354;28;20217;-66
2022/08/06 02:15:37;;;;;;;3.97;2.60;;;14.80;99.90;;;;;;8347284;28;20182;-66
2022/08/06 02:19:44;;;;;;;4.63;2.60;;;14.80;99.90;;;;;;8335873;28;20186;-66
2022/08/06 02:23:47;;;;;;;3.10;2.43;;;14.80;99.90;;;;;;8341136;28;20229;-66
2022/08/06 02:27:50;;;;;;;3.23;2.57;;;14.80;99.90;;;;;;8335715;28;20189;-65
2022/08/06 02:31:51;;;;;;;5.80;2.40;;;14.80;99.90;;;;;;8337070;28;20209;-66
2022/08/06 02:35:59;;;;;;;3.20;2.37;;;14.80;99.90;;;;;;8335810;28;20793;-66
2022/08/06 02:40:10;;;;;;;2.63;2.43;;;14.90;99.90;;;;;;8333208;28;20235;-65
2022/08/06 02:44:43;;;;;;;4.03;2.43;;;14.90;99.90;;;;;;8338272;28;20190;-67
2022/08/06 02:48:49;;;;;;;2.33;2.13;;;14.90;99.90;;;;;;8342248;28;20222;-66
2022/08/06 02:53:01;;;;;;;3.57;2.43;;;14.90;99.90;;;;;;8336715;28;20270;-66
2022/08/06 02:57:04;;;;;;;2.60;2.40;;;14.90;99.90;;;;;;8336133;28;20174;-66
2022/08/06 03:01:10;;;;;;;2.37;2.17;;;14.90;99.90;;;;;;8336114;28;20186;-66
2022/08/06 03:05:19;;;;;;;3.63;2.40;;;14.90;99.90;;;;;;8337627;28;20180;-66
2022/08/06 03:09:21;;;;;;;3.80;2.43;;;14.90;99.90;;;;;;8335659;28;20190;-65
2022/08/06 03:13:23;;;;;;;3.03;2.73;;;14.90;99.90;;;;;;8352178;28;20287;-66
2022/08/06 03:17:25;;;;;;;3.67;2.53;;;14.90;99.90;;;;;;8336675;28;20210;-66
2022/08/06 03:21:29;;;;;;;3.50;3.20;;;15.00;99.90;;;;;;8338575;28;20189;-67
2022/08/06 03:25:31;;;;;;;4.83;3.20;;;15.00;99.90;;;;;;8351692;28;20186;-66
2022/08/06 03:29:34;;;;;;;6.43;3.57;;;15.00;99.90;;;;;;8339073;28;20277;-66
2022/08/06 03:33:35;;;;;;;6.20;3.60;;;15.00;99.90;;;;;;8333585;28;20209;-67
2022/08/06 03:37:37;;;;;;;5.63;3.67;;;15.10;99.90;;;;;;8335485;28;20183;-66
2022/08/06 03:41:39;;;;;;;5.50;3.73;;;15.10;99.90;;;;;;8333023;28;20178;-67
2022/08/06 03:45:49;;;;;;;3.63;3.33;;;15.10;99.90;;;;;;8340631;28;20197;-66
2022/08/06 03:50:02;;;;;;;5.87;4.43;;;15.10;99.90;;;;;;8334934;28;20241;-66
2022/08/06 03:54:04;;;;;;;5.13;3.87;;;15.00;99.90;;;;;;8332768;28;20205;-66
2022/08/06 03:58:10;;;;;;;4.60;3.60;;;15.00;99.90;;;;;;8334492;28;20197;-66
2022/08/06 04:02:14;;;;;;;4.37;3.97;;;15.00;99.90;;;;;;8337045;28;20233;-66
2022/08/06 04:06:19;;;;;;;4.90;4.00;;;15.00;99.90;;;;;;8335104;28;20286;-65
2022/08/06 04:10:22;;;;;;;6.93;3.73;;;14.90;99.90;;;;;;8340790;28;20202;-66
2022/08/06 04:14:23;;;;;;;5.47;3.90;;;14.90;99.90;;;;;;8335044;28;20220;-67
2022/08/06 04:18:31;;;;;;;5.10;3.87;;;14.90;99.90;;;;;;8340643;28;20194;-65
2022/08/06 04:22:32;;;;;;;4.83;4.20;;;14.80;99.90;;;;;;8336073;28;20186;-65
2022/08/06 04:26:34;;;;;;;6.73;4.00;;;14.80;99.90;;;;;;8333770;28;20191;-66
2022/08/06 04:30:36;;;;;;;3.80;3.33;;;14.80;99.90;;;;;;8340891;28;20218;-65
2022/08/06 04:34:38;;;;;;;5.67;3.63;;;14.80;99.90;;;;;;8338999;28;20209;-66
2022/08/06 04:38:40;;;;;;;4.80;3.70;;;14.80;99.90;;;;;;8336789;28;20313;-66
2022/08/06 04:42:41;;;;;;;5.10;3.57;;;14.80;99.90;;;;;;8332148;28;21303;-65
2022/08/06 04:46:48;;;;;;;7.30;3.33;;;14.80;99.90;;;;;;8352691;28;20174;-66
2022/08/06 04:50:49;;;;;;;4.37;3.20;;;14.80;99.90;;;;;;8338358;28;20217;-66
2022/08/06 04:54:50;;;;;;;3.83;3.33;;;14.80;99.90;;;;;;8334604;28;20205;-66
2022/08/06 04:58:50;;;;;;;4.80;3.20;;;14.80;99.90;;;;;;8334325;28;20193;-67
2022/08/06 05:02:51;;;;;;;5.17;2.87;;;14.80;99.90;;;;;;8336950;28;20197;-67
2022/08/06 05:07:16;;;;;;;8.83;3.50;;;14.80;99.90;;;;;;8336307;28;20181;-67
2022/08/06 05:11:27;;;;;;;5.33;3.37;;;14.80;99.90;;;;;;8335797;28;20252;-65
2022/08/06 05:15:32;;;;;;;4.63;3.47;;;14.80;99.90;;;;;;8336651;28;20174;-66
2022/08/06 05:19:44;;;;;;;5.00;3.63;;;14.80;99.90;;;;;;8340425;28;20217;-66
2022/08/06 05:23:49;;;;;;;4.67;3.43;;;14.80;99.90;;;;;;8348268;28;20226;-66
2022/08/06 05:27:50;;;;;;;6.67;3.20;;;14.80;99.90;;;;;;8342953;28;20221;-67
2022/08/06 05:31:58;;;;;;;4.17;3.70;;;14.80;99.90;;;;;;8347413;28;20244;-66
2022/08/06 05:36:00;;;;;;;8.50;3.90;;;14.80;99.90;;;;;;8337034;28;20196;-66
2022/08/06 05:40:02;;;;;;;5.67;4.33;;;14.90;99.90;;;;;;8341419;28;20201;-66
2022/08/06 05:44:03;;;;;;;4.03;3.50;;;14.90;99.90;;;;;;8342420;28;20200;-66
2022/08/06 05:48:05;;;;;;;4.47;3.93;;;15.00;99.90;;;;;;8342932;28;20193;-66
2022/08/06 05:52:14;;;;;;;4.27;3.53;;;15.10;99.90;;;;;;8342172;28;20226;-66
2022/08/06 05:56:20;;;;;;;3.70;3.27;;;15.10;99.90;;;;;;8338913;28;20269;-66
2022/08/06 06:00:25;;;;;;;4.07;3.50;;;15.20;99.90;;;;;;8344073;28;20186;-66
2022/08/06 06:04:27;;;;;;;3.60;3.30;;;15.20;99.90;;;;;;8340672;28;20226;-66
2022/08/06 06:08:27;;;;;;;5.07;3.40;;;15.30;99.90;;;;;;8341764;28;20201;-66
2022/08/06 06:12:30;;;;;;;3.83;3.37;;;15.30;99.90;;;;;;8339636;28;20217;-66
2022/08/06 06:17:03;;;;;;;5.17;3.10;;;15.40;99.90;;;;;;8341214;28;20179;-66
2022/08/06 06:21:45;;;;;;;5.20;2.90;;;15.40;99.90;;;;;;8342169;28;20194;-66
2022/08/06 06:25:51;;;;;;;2.90;2.43;;;15.50;99.90;;;;;;8338670;28;20186;-66
2022/08/06 06:30:00;;;;;;;3.13;2.80;;;15.60;99.90;;;;;;8341442;28;20268;-67
2022/08/06 06:34:17;;;;;;;4.20;2.27;;;15.70;99.90;;;;;;8337319;28;20213;-67
2022/08/06 06:38:38;;;;;;;2.20;1.90;;;15.70;99.90;;;;;;8339218;28;20202;-66
2022/08/06 06:42:45;;;;;;;2.00;1.80;;;15.80;99.90;;;;;;8335646;28;20191;-68
2022/08/06 06:47:00;;;;;;;3.03;1.57;;;15.90;99.90;;;;;;8341271;28;20289;-66
2022/08/06 06:51:08;;;;;;;1.33;1.23;;;16.00;99.90;;;;;;8338289;28;20187;-66
2022/08/06 06:55:24;;;;;;;4.33;1.73;;;16.10;99.90;;;;;;8342794;28;20231;-66
2022/08/06 06:59:33;;;;;;;3.87;2.00;;;16.10;99.90;;;;;;8342514;28;20277;-66
2022/08/06 07:03:34;;;;;;;3.00;1.97;;;16.10;93.70;;;;;;8333806;28;20209;-66
2022/08/06 07:07:39;;;;;;;2.30;2.10;;;16.20;99.90;;;;;;8350326;28;20188;-66
2022/08/06 07:11:40;;;;;;;2.73;2.20;;;16.30;99.90;;;;;;8342664;28;20268;-66
2022/08/06 07:15:42;;;;;;;1.97;1.63;;;16.30;1.00;;;;;;8339334;28;20179;-67
2022/08/06 07:19:43;;;;;;;3.10;1.50;;;16.40;1.00;;;;;;8337680;28;20178;-67
2022/08/06 07:23:48;;;;;;;3.30;1.93;;;16.30;27.10;;;;;;8339640;28;20456;-67
2022/08/06 07:27:50;;;;;;;2.30;2.07;;;16.40;1.00;;;;;;8336655;28;20189;-66
2022/08/06 07:31:54;;;;;;;3.00;1.47;;;16.40;77.90;;;;;;8335671;28;20350;-66
2022/08/06 07:35:57;;;;;;;2.33;1.27;;;16.30;1.00;;;;;;8346321;28;20214;-67
2022/08/06 07:40:00;;;;;;;2.73;1.33;;;16.30;99.90;;;;;;8338032;28;20224;-68
2022/08/06 07:44:03;;;;;;;1.70;1.20;;;16.40;99.90;;;;;;8336424;28;20214;-68
2022/08/06 07:48:08;;;;;;;1.93;1.50;;;16.50;99.90;;;;;;8336838;28;20189;-67
2022/08/06 07:52:13;;;;;;;3.90;1.27;;;16.40;99.90;;;;;;8337748;28;20206;-66
2022/08/06 07:56:15;;;;;;;2.70;1.50;;;16.40;99.90;;;;;;8342459;28;20181;-67
2022/08/06 08:00:16;;;;;;;2.30;1.13;;;16.50;99.90;;;;;;8338004;28;20182;-67
2022/08/06 08:08:38;;;;;;;1.73;1.10;;;17.00;1.00;;;;;;8337284;28;20379;-67
2022/08/06 08:12:40;;;;;;;1.33;1.00;;;16.90;1.00;;;;;;8330488;28;20218;-67
2022/08/06 08:16:41;;;;;;;2.57;1.27;;;16.90;1.00;;;;;;8350121;28;20179;-67
2022/08/06 08:20:44;;;;;;;1.63;1.10;;;17.20;99.90;;;;;;8339417;28;20181;-67
2022/08/06 08:24:46;;;;;;;1.53;0.80;;;17.40;99.90;;;;;;8336144;28;20197;-68
2022/08/06 08:28:47;;;;;;;1.63;0.77;;;17.50;99.90;;;;;;8337826;28;20189;-68
2022/08/06 08:32:47;;;;;;;2.30;0.90;;;17.70;99.90;;;;;;8335552;28;20313;-68
2022/08/06 08:36:48;;;;;;;1.63;0.80;;;17.90;99.90;;;;;;8337373;28;20186;-69
2022/08/06 08:40:51;;;;;;;3.90;0.80;;;18.10;1.00;;;;;;8335022;28;20195;-69
2022/08/06 08:44:54;;;;;;;2.47;0.90;;;18.10;33.10;;;;;;8333219;28;20521;-69
2022/08/06 08:48:57;;;;;;;1.03;0.57;;;18.20;25.60;;;;;;8333930;28;20201;-69
2022/08/06 08:53:23;;;;;;;1.27;0.70;;;18.30;1.00;;;;;;8334685;28;20233;-69
2022/08/06 08:57:26;;;;;;;1.77;0.50;;;18.30;99.90;;;;;;8341931;28;20190;-67
2022/08/06 09:01:27;;;;;;;2.30;0.80;;;18.20;1.00;;;;;;8341910;28;20194;-69
2022/08/06 09:05:29;;;;;;;2.63;0.60;;;18.50;1.00;;;;;;8341665;28;20265;-67
2022/08/06 09:09:34;;;;;;;0.57;0.43;;;18.90;99.90;;;;;;8356956;28;20233;-68
2022/08/06 09:13:35;;;;;;;0.53;0.40;;;19.40;99.90;;;;;;8345027;28;20670;-66
2022/08/06 09:17:37;;;;;;;1.50;0.50;;;19.10;99.90;;;;;;8342692;28;20178;-67
2022/08/06 09:21:38;;;;;;;1.30;0.40;;;18.90;99.90;;;;;;8346366;28;20223;-67
2022/08/06 09:25:47;;;;;;;0.90;0.40;;;19.40;99.90;;;;;;8344985;28;20205;-67
2022/08/06 09:29:51;;;;;;;0.77;0.30;;;20.00;99.90;;;;;;8340275;28;20182;-67
2022/08/06 09:34:00;;;;;;;0.43;0.40;;;20.20;99.90;;;;;;8343833;28;20208;-68
2022/08/06 09:38:08;;;;;;;2.50;0.60;;;20.10;99.90;;;;;;8341457;28;20248;-66
2022/08/06 09:42:10;;;;;;;2.50;0.40;;;20.20;98.40;;;;;;8340859;28;20190;-67
2022/08/06 09:46:11;;;;;;;1.10;0.30;;;20.10;97.10;;;;;;8358397;28;20322;-67
2022/08/06 09:50:12;;;;;;;0.97;0.50;;;20.00;80.70;;;;;;8339322;28;20327;-67
2022/08/06 09:54:18;;;;;;;3.97;0.50;;;19.80;99.90;;;;;;8356215;28;20226;-67
2022/08/06 09:58:37;;;;;;;1.77;0.50;;;19.90;99.90;;;;;;8355445;28;20182;-67
2022/08/06 10:02:38;;;;;;;2.90;0.70;;;20.30;99.90;;;;;;8338131;28;20237;-66
2022/08/06 10:07:01;;;;;;;1.30;0.43;;;20.80;53.80;;;;;;8339983;28;20189;-67
2022/08/06 10:11:04;;;;;;;1.03;0.40;;;21.20;1.00;;;;;;8353244;28;20221;-67
2022/08/06 10:15:05;;;;;;;1.77;0.47;;;20.80;1.00;;;;;;8340362;28;20231;-67
2022/08/06 10:19:16;;;;;;;1.00;0.30;;;20.50;1.00;;;;;;8338258;28;20186;-67
2022/08/06 10:23:17;;;;;;;2.07;0.40;;;20.30;44.80;;;;;;8346808;28;20195;-69
2022/08/06 10:27:25;;;;;;;2.20;0.40;;;20.30;37.00;;;;;;8342626;28;20181;-67
2022/08/06 10:31:26;;;;;;;1.33;0.40;;;20.10;85.40;;;;;;8343769;28;20200;-67
2022/08/06 10:35:27;;;;;;;2.47;0.50;;;20.10;1.00;;;;;;8339538;28;20178;-67
2022/08/06 10:39:33;;;;;;;0.80;0.50;;;20.20;1.00;;;;;;8338890;28;20178;-67
2022/08/06 10:43:36;;;;;;;0.60;0.40;;;20.40;1.00;;;;;;8336991;28;20255;-67
2022/08/06 10:47:38;;;;;;;1.40;0.40;;;20.80;2.40;;;;;;8345613;28;20186;-67
2022/08/06 10:51:40;;;;;;;1.47;0.30;;;21.00;1.00;;;;;;8355939;28;20209;-66
2022/08/06 10:55:41;;;;;;;1.43;0.40;;;20.80;1.00;;;;;;8339618;28;20254;-67
2022/08/06 10:59:43;;;;;;;1.03;0.20;;;20.80;1.00;;;;;;8339348;28;20235;-67
2022/08/06 11:04:23;;;;;;;0.40;0.20;;;20.80;1.00;;;;;;8335727;28;20187;-67
2022/08/06 11:08:56;;;;;;;0.30;0.20;;;20.70;1.00;;;;;;8340740;28;20192;-67
2022/08/06 11:13:09;;;;;;;0.40;0.20;;;21.00;1.00;;;;;;8339400;28;20238;-67
2022/08/06 11:17:11;;;;;;;1.00;0.20;;;21.20;1.00;;;;;;8355452;28;20186;-67
2022/08/06 11:21:50;;;;;;;0.50;0.30;;;21.00;1.00;;;;;;8339174;28;20182;-67
2022/08/06 11:25:55;;;;;;;1.00;0.20;;;20.80;1.00;;;;;;8342762;28;20193;-67
2022/08/06 11:30:12;;;;;;;1.13;0.30;;;21.40;1.00;;;;;;8339118;28;20276;-67
2022/08/06 11:34:15;;;;;;;1.77;0.53;;;21.80;1.00;;;;;;8337020;28;20271;-67
2022/08/06 11:38:42;;;;;;;0.80;0.20;;;21.30;1.00;;;;;;8354975;28;20183;-69
2022/08/06 11:42:44;;;;;;;0.57;0.20;;;21.20;1.00;;;;;;8342410;28;20186;-67
2022/08/06 11:46:47;;;;;;;0.97;0.30;;;21.20;1.00;;;;;;8343777;28;20246;-68
2022/08/06 11:50:48;;;;;;;0.30;0.17;;;21.40;1.00;;;;;;8335116;28;20190;-67
2022/08/06 11:54:49;;;;;;;1.03;0.20;;;21.50;1.00;;;;;;8337468;28;20214;-67
2022/08/06 11:59:09;;;;;;;0.87;0.10;;;21.90;1.00;;;;;;8335338;28;20494;-69
2022/08/06 12:03:10;;;;;;;0.80;0.30;;;22.40;1.00;;;;;;8336922;28;20190;-68
2022/08/06 12:07:29;;;;;;;1.77;0.40;;;22.50;1.00;;;;;;8340483;28;20188;-68
2022/08/06 12:11:35;;;;;;;0.50;0.20;;;22.20;1.00;;;;;;8344203;28;20229;-68
2022/08/06 12:15:36;;;;;;;0.33;0.30;;;21.90;1.00;;;;;;8335868;28;20681;-67
2022/08/06 12:19:43;;;;;;;0.33;0.17;;;21.80;1.00;;;;;;8342146;28;20256;-68
2022/08/06 12:23:44;;;;;;;0.90;0.13;;;21.70;1.00;;;;;;8341711;28;20190;-68
2022/08/06 12:27:45;;;;;;;0.80;0.30;;;21.90;1.00;;;;;;8338889;28;20197;-69
2022/08/06 12:31:46;;;;;;;0.53;0.20;;;22.00;1.00;;;;;;8334708;28;20301;-68
2022/08/06 12:35:51;;;;;;;1.00;0.10;;;22.30;1.00;;;;;;8336009;28;20182;-67
2022/08/06 12:44:13;;;;;;;0.60;0.10;;;22.70;1.00;;;;;;8341480;28;20248;-67
2022/08/06 12:48:13;;;;;;;0.70;0.20;;;22.70;1.00;;;;;;8352245;28;20277;-69
2022/08/06 12:52:17;;;;;;;1.17;0.20;;;22.70;1.00;;;;;;8333289;28;20272;-67
2022/08/06 12:56:21;;;;;;;0.70;0.10;;;22.30;1.00;;;;;;8334648;28;20653;-72
2022/08/06 13:00:26;;;;;;;2.17;0.20;;;22.30;1.00;;;;;;8339628;28;20285;-67
2022/08/06 13:04:27;;;;;;;0.40;0.10;;;22.30;1.00;;;;;;8351403;28;20285;-67
2022/08/06 13:08:28;;;;;;;0.90;0.20;;;22.40;1.00;;;;;;8341016;28;20194;-67
2022/08/06 13:12:29;;;;;;;1.17;0.20;;;22.70;1.00;;;;;;8334082;28;20214;-67
2022/08/06 13:16:39;;;;;;;1.03;0.40;;;23.10;1.00;;;;;;8338701;28;20187;-68
2022/08/06 13:20:46;;;;;;;0.87;0.20;;;23.20;1.00;;;;;;8336296;28;20216;-68
2022/08/06 13:24:47;;;;;;;0.97;0.20;;;23.10;1.00;;;;;;8334680;28;20240;-69
2022/08/06 13:29:10;;;;;;;0.63;0.27;;;22.90;1.00;;;;;;8333350;28;20264;-67
2022/08/06 13:33:22;;;;;;;0.90;0.10;;;22.80;1.00;;;;;;8333457;28;20214;-67
2022/08/06 13:37:43;;;;;;;0.70;0.20;;;22.90;1.00;;;;;;8334872;28;20194;-67
2022/08/06 13:41:44;;;;;;;0.93;0.20;;;23.50;1.00;;;;;;8343685;28;20179;-67
2022/08/06 13:45:45;;;;;;;0.90;0.30;;;23.90;1.00;;;;;;8342211;28;20192;-67
2022/08/06 13:49:46;;;;;;;0.77;0.20;;;24.00;1.00;;;;;;8342132;28;20192;-67
2022/08/06 13:53:47;;;;;;;0.50;0.20;;;23.80;1.00;;;;;;8340383;28;20217;-67
2022/08/06 13:57:48;;;;;;;0.77;0.20;;;24.10;1.00;;;;;;8343434;28;20254;-68
2022/08/06 14:01:49;;;;;;;0.60;0.20;;;24.40;1.00;;;;;;8351916;28;20272;-66
2022/08/06 14:05:51;;;;;;;0.50;0.20;;;24.00;1.00;;;;;;8341612;28;20604;-67
2022/08/06 14:09:51;;;;;;;1.57;0.20;;;24.00;1.00;;;;;;8337397;28;20201;-68
2022/08/06 14:13:52;;;;;;;1.00;0.30;;;23.90;1.00;;;;;;8341841;28;20217;-67
2022/08/06 14:17:53;;;;;;;0.40;0.20;;;24.00;1.00;;;;;;8346620;28;20249;-66
2022/08/06 14:21:54;;;;;;;0.90;0.20;;;23.70;1.00;;;;;;8340475;28;20261;-68
2022/08/06 14:25:55;;;;;;;1.50;0.30;;;23.50;1.00;;;;;;8341643;28;20198;-68
2022/08/06 14:29:56;;;;;;;0.30;0.20;;;23.70;1.00;;;;;;8338571;28;20265;-67
2022/08/06 14:33:56;;;;;;;0.53;0.20;;;23.70;1.00;;;;;;8354844;28;20213;-67
2022/08/06 14:37:57;;;;;;;1.80;0.30;;;23.70;1.00;;;;;;8344815;28;20201;-67
2022/08/06 14:46:17;;;;;;;0.37;0.10;;;23.80;1.00;;;;;;8339779;28;20194;-67
2022/08/06 14:50:18;;;;;;;0.40;0.13;;;23.60;1.00;;;;;;8337226;28;20186;-68
2022/08/06 14:54:20;;;;;;;2.27;0.43;;;23.90;1.00;;;;;;8339548;28;20245;-67
2022/08/06 14:58:21;;;;;;;1.90;0.30;;;24.00;1.00;;;;;;8339689;28;20651;-66
2022/08/06 15:02:23;;;;;;;1.80;0.30;;;24.00;1.00;;;;;;8335764;28;20235;-68
2022/08/06 15:06:24;;;;;;;0.97;0.40;;;24.20;1.00;;;;;;8338285;28;20196;-67
2022/08/06 15:10:25;;;;;;;3.03;0.20;;;24.00;1.00;;;;;;8340037;28;20202;-67
2022/08/06 15:14:27;;;;;;;0.83;0.20;;;23.60;1.00;;;;;;8338789;28;20253;-67
2022/08/06 15:18:28;;;;;;;1.10;0.20;;;23.60;1.00;;;;;;8356795;28;20193;-68
2022/08/06 15:22:28;;;;;;;0.57;0.30;;;23.60;1.00;;;;;;8335662;28;20187;-67
2022/08/06 15:26:29;;;;;;;1.20;0.40;;;23.20;1.00;;;;;;8337571;28;20212;-67
2022/08/06 15:30:30;;;;;;;0.30;0.17;;;22.90;1.00;;;;;;8337096;28;20190;-67
2022/08/06 15:34:31;;;;;;;1.30;0.20;;;22.60;1.00;;;;;;8344408;28;20202;-67
2022/08/06 15:38:32;;;;;;;0.60;0.20;;;22.40;1.00;;;;;;8345729;28;20190;-67
2022/08/06 15:42:33;;;;;;;3.37;0.90;;;22.40;1.00;;;;;;8335816;28;20185;-67
2022/08/06 15:46:34;;;;;;;1.03;0.50;;;22.70;1.00;;;;;;8337885;28;20191;-67
2022/08/06 15:50:35;;;;;;;1.20;0.63;;;23.20;1.00;;;;;;8338695;28;20228;-67
2022/08/06 15:54:36;;;;;;;0.50;0.20;;;23.50;1.00;;;;;;8350251;28;20222;-67
2022/08/06 15:58:40;;;;;;;1.43;0.33;;;23.80;1.00;;;;;;8333774;28;20186;-67
2022/08/06 16:02:41;;;;;;;0.80;0.23;;;23.90;1.00;;;;;;8337036;28;20201;-67
2022/08/06 16:06:42;;;;;;;0.73;0.30;;;24.00;1.00;;;;;;8339183;28;20190;-66
2022/08/06 16:10:48;;;;;;;1.33;0.17;;;23.70;1.00;;;;;;8334480;28;20259;-67
2022/08/06 16:14:49;;;;;;;0.87;0.20;;;23.20;1.00;;;;;;8339719;28;20263;-66
2022/08/06 16:18:50;;;;;;;2.73;0.53;;;22.80;1.00;;;;;;8337047;28;20252;-67
2022/08/06 16:22:51;;;;;;;1.10;0.20;;;22.50;1.00;;;;;;8336925;28;20273;-66
2022/08/06 16:26:52;;;;;;;1.57;0.30;;;22.50;1.00;;;;;;8339269;28;20205;-67
2022/08/06 16:30:53;;;;;;;1.93;0.93;;;22.50;1.00;;;;;;8337143;28;20185;-67
2022/08/06 16:34:58;;;;;;;1.77;0.20;;;22.60;1.00;;;;;;8339603;28;20214;-67
2022/08/06 16:38:59;;;;;;;0.83;0.30;;;22.60;1.00;;;;;;8337817;28;20252;-67
2022/08/06 16:43:01;;;;;;;0.70;0.27;;;22.70;1.00;;;;;;8338638;28;20243;-67
2022/08/06 16:47:03;;;;;;;0.40;0.10;;;22.70;1.00;;;;;;8335414;28;20194;-66
2022/08/06 16:51:05;;;;;;;1.70;0.80;;;22.80;1.00;;;;;;8333682;28;20247;-67
2022/08/06 16:55:06;;;;;;;0.40;0.37;;;22.80;1.00;;;;;;8333473;28;20217;-67
2022/08/06 16:59:07;;;;;;;0.50;0.20;;;22.80;1.00;;;;;;8338678;28;20191;-67
2022/08/06 17:03:08;;;;;;;1.47;0.30;;;22.70;1.00;;;;;;8337657;28;20190;-66
2022/08/06 17:07:11;;;;;;;0.97;0.30;;;22.50;1.00;;;;;;8348548;28;20189;-67
2022/08/06 17:11:12;;;;;;;0.57;0.30;;;22.40;1.00;;;;;;8333989;28;20241;-67
2022/08/06 17:15:16;;;;;;;1.60;0.80;;;22.30;1.00;;;;;;8341008;28;20201;-70
2022/08/06 17:19:17;;;;;;;2.10;0.80;;;22.20;1.00;;;;;;8344325;28;20243;-67
2022/08/06 17:23:18;;;;;;;1.60;0.83;;;22.20;1.00;;;;;;8343106;28;20201;-66
2022/08/06 17:27:19;;;;;;;0.70;0.30;;;22.10;1.00;;;;;;8342641;28;20189;-66
2022/08/06 17:31:20;;;;;;;1.17;0.63;;;22.10;1.00;;;;;;8338457;28;20186;-66
2022/08/06 17:35:24;;;;;;;3.27;0.47;;;22.00;1.00;;;;;;8340614;28;20217;-66
2022/08/06 17:39:25;;;;;;;2.13;0.70;;;22.30;1.00;;;;;;8343502;28;20186;-66
2022/08/06 17:43:26;;;;;;;4.87;2.10;;;22.80;1.00;;;;;;8343847;28;20173;-67
2022/08/06 17:47:30;;;;;;;1.53;0.90;;;23.50;1.00;;;;;;8356989;28;20277;-65
2022/08/06 17:51:31;;;;;;;4.03;1.80;;;24.20;1.00;;;;;;8341425;28;20178;-71
2022/08/06 17:55:31;;;;;;;2.87;0.60;;;24.50;1.00;;;;;;8347684;28;20306;-65
2022/08/06 17:59:32;;;;;;;2.30;0.87;;;24.60;1.00;;;;;;8346750;28;20214;-65
2022/08/06 18:03:33;;;;;;;3.23;0.70;;;24.30;1.00;;;;;;8349225;28;20216;-65
2022/08/06 18:07:34;;;;;;;1.93;1.23;;;24.20;1.00;;;;;;8349738;28;20213;-65
2022/08/06 18:11:36;;;;;;;1.73;1.00;;;24.20;1.00;;;;;;8339680;28;20351;-64
2022/08/06 18:15:37;;;;;;;2.37;0.67;;;23.80;1.00;;;;;;8346686;28;20205;-65
2022/08/06 18:19:38;;;;;;;0.77;0.50;;;23.40;1.00;;;;;;8345950;28;20195;-65
2022/08/06 18:23:39;;;;;;;1.77;0.50;;;23.30;1.00;;;;;;8344625;28;20185;-64
2022/08/06 18:27:41;;;;;;;0.93;0.50;;;22.80;1.00;;;;;;8338168;28;20277;-65
2022/08/06 18:31:42;;;;;;;0.70;0.43;;;22.00;1.00;;;;;;8344722;28;20251;-66
2022/08/06 18:35:43;;;;;;;0.60;0.50;;;21.20;1.00;;;;;;8343607;28;20261;-65
2022/08/06 18:39:45;;;;;;;0.60;0.50;;;20.40;1.00;;;;;;8357989;28;20269;-65
2022/08/06 18:43:46;;;;;;;0.60;0.50;;;19.70;1.00;;;;;;8338450;28;20182;-65
2022/08/06 18:47:47;;;;;;;0.50;0.40;;;19.10;77.10;;;;;;8342332;28;20221;-65
2022/08/06 18:51:48;;;;;;;0.60;0.50;;;18.60;99.90;;;;;;8354231;28;20187;-66
2022/08/06 18:55:49;;;;;;;0.70;0.50;;;18.20;99.90;;;;;;8339522;28;20182;-65
2022/08/06 18:59:50;;;;;;;1.07;0.67;;;17.80;99.90;;;;;;8339847;28;20238;-65
2022/08/06 19:03:50;;;;;;;7.03;4.50;;;17.40;99.90;;;;;;8355190;28;20186;-65
2022/08/06 19:07:51;;;;;;;26.37;18.67;;;17.10;99.90;;;;;;8344722;28;20181;-66
2022/08/06 19:11:52;;;;;;;15.47;12.07;;;16.80;99.90;;;;;;8340239;28;20270;-65
2022/08/06 19:15:53;;;;;;;6.43;4.87;;;16.50;1.00;;;;;;8343218;28;20188;-65
2022/08/06 19:19:54;;;;;;;3.67;2.33;;;16.30;1.00;;;;;;8340611;28;20258;-65
2022/08/06 19:23:55;;;;;;;1.23;1.10;;;16.10;1.00;;;;;;8353093;28;20177;-65
2022/08/06 19:27:56;;;;;;;1.53;0.83;;;15.90;1.00;;;;;;8340454;28;20223;-65
2022/08/06 19:31:57;;;;;;;1.30;0.83;;;15.70;1.00;;;;;;8344644;28;20281;-65
2022/08/06 19:35:58;;;;;;;1.50;0.60;;;15.50;36.60;;;;;;8339347;28;20181;-66
2022/08/06 19:44:22;;;;;;;1.60;0.87;;;15.10;99.90;;;;;;8338757;28;20194;-65
2022/08/06 19:48:23;;;;;;;1.20;0.90;;;14.90;1.00;;;;;;8339361;28;20309;-65
2022/08/06 19:52:24;;;;;;;2.00;0.83;;;14.80;1.00;;;;;;8340754;28;20205;-66
2022/08/06 19:56:25;;;;;;;2.50;1.50;;;14.60;1.00;;;;;;8342487;28;20178;-65
2022/08/06 20:00:26;;;;;;;1.87;1.27;;;14.50;1.00;;;;;;8351650;28;20174;-65
2022/08/06 20:04:27;;;;;;;1.67;1.03;;;14.30;1.00;;;;;;8338199;28;20190;-66
2022/08/06 20:08:28;;;;;;;1.70;0.77;;;14.20;1.00;;;;;;8336912;28;20194;-66
2022/08/06 20:12:33;;;;;;;0.60;0.60;;;14.10;99.90;;;;;;8336089;28;20268;-66
2022/08/06 20:16:34;;;;;;;0.63;0.60;;;13.90;99.90;;;;;;8336773;28;20244;-74
2022/08/06 20:20:36;;;;;;;1.00;0.60;;;13.80;99.90;;;;;;8353742;28;20260;-65
2022/08/06 20:24:37;;;;;;;0.50;0.50;;;13.60;99.90;;;;;;8337807;28;20281;-65
2022/08/06 20:28:38;;;;;;;1.53;0.60;;;13.50;99.90;;;;;;8349423;28;20267;-65
2022/08/06 20:32:41;;;;;;;0.90;0.70;;;13.30;99.90;;;;;;8321487;28;20217;-66
2022/08/06 20:36:42;;;;;;;0.70;0.60;;;13.20;1.00;;;;;;8349354;28;20190;-65
2022/08/06 20:40:43;;;;;;;0.67;0.67;;;13.10;1.00;;;;;;8338968;28;20209;-66
2022/08/06 20:44:45;;;;;;;0.67;0.47;;;13.00;23.10;;;;;;8333814;28;20204;-65
2022/08/06 20:48:47;;;;;;;0.80;0.47;;;12.90;99.90;;;;;;8334194;28;20189;-65
2022/08/06 20:52:49;;;;;;;0.40;0.30;;;12.80;99.90;;;;;;8344555;28;20214;-65
2022/08/06 20:56:50;;;;;;;0.60;0.50;;;12.70;99.90;;;;;;8339311;28;20733;-65
2022/08/06 21:00:50;;;;;;;0.87;0.60;;;12.60;99.90;;;;;;8331524;28;20184;-65
2022/08/06 21:04:51;;;;;;;0.97;0.50;;;12.50;98.10;;;;;;8333868;28;20195;-66
2022/08/06 21:08:52;;;;;;;1.73;0.70;;;12.40;99.90;;;;;;8339039;28;20199;-65
2022/08/06 21:12:53;;;;;;;0.70;0.70;;;12.30;99.90;;;;;;8336870;28;20239;-66
2022/08/06 21:16:54;;;;;;;0.70;0.60;;;12.20;1.00;;;;;;8337053;28;20197;-66
2022/08/06 21:20:55;;;;;;;0.77;0.70;;;12.10;99.90;;;;;;8333302;28;20273;-65
2022/08/06 21:24:56;;;;;;;0.83;0.60;;;12.00;99.90;;;;;;8341563;28;20217;-66
2022/08/06 21:28:57;;;;;;;0.70;0.70;;;12.00;99.90;;;;;;8334769;28;20183;-66
2022/08/06 21:32:58;;;;;;;0.80;0.70;;;11.90;1.00;;;;;;8337354;28;20491;-66
2022/08/06 21:36:59;;;;;;;1.47;0.60;;;11.80;99.90;;;;;;8335487;28;20203;-72